Terminal Aerodrome Forecast
Issued by NWS

Home | Current Version | Previous Version | Text Only | Print | Product List | Glossary On
Versions: 1 2 3 4 5 6 7 8 9 10 11 12 13 14 15 16 17 18 19
000
FTUS41 KRLX 281245 AAA
TAFCKB
TAF AMD
KCKB 281245Z 2813/2912 18004KT 4SM SHRA OVC015
      TEMPO 2813/2815 1SM BR BKN005
     FM281800 26004KT 3SM BR VCTS OVC025CB
      TEMPO 2818/2819 2SM SHRA OVC015
     FM281900 28004KT 1SM TSRA OVC015CB
     FM282100 35005KT 1 1/2SM SHRA VCTS OVC025CB
     FM282300 35005KT 2SM SHRA OVC025=

USA.gov is the U.S. government's official web portal to all federal, state and local government web resources and services.